sensor_id;sensor_type;location;lat;lon;timestamp;temperature;humidity
21682;DHT22;11002;48.256;10.084;2024-02-26T00:02:01;4.40;58.30
21682;DHT22;11002;48.256;10.084;2024-02-26T00:04:28;4.50;58.20
21682;DHT22;11002;48.256;10.084;2024-02-26T00:06:56;4.40;58.20
21682;DHT22;11002;48.256;10.084;2024-02-26T00:09:24;4.40;58.10
21682;DHT22;11002;48.256;10.084;2024-02-26T00:11:51;4.40;58.10
21682;DHT22;11002;48.256;10.084;2024-02-26T00:14:18;4.40;58.10
21682;DHT22;11002;48.256;10.084;2024-02-26T00:16:45;4.50;59.20
21682;DHT22;11002;48.256;10.084;2024-02-26T00:19:14;4.50;58.40
21682;DHT22;11002;48.256;10.084;2024-02-26T00:33:20;4.50;58.80
21682;DHT22;11002;48.256;10.084;2024-02-26T00:49:35;4.50;58.50
21682;DHT22;11002;48.256;10.084;2024-02-26T00:52:03;4.60;58.50
21682;DHT22;11002;48.256;10.084;2024-02-26T00:54:30;4.60;58.70
21682;DHT22;11002;48.256;10.084;2024-02-26T00:56:57;4.50;58.90
21682;DHT22;11002;48.256;10.084;2024-02-26T00:59:25;4.60;59.00
21682;DHT22;11002;48.256;10.084;2024-02-26T01:01:52;4.60;59.30
21682;DHT22;11002;48.256;10.084;2024-02-26T01:04:19;4.60;59.60
21682;DHT22;11002;48.256;10.084;2024-02-26T01:06:48;4.60;59.90
21682;DHT22;11002;48.256;10.084;2024-02-26T01:09:15;4.60;60.10
21682;DHT22;11002;48.256;10.084;2024-02-26T01:11:44;4.50;60.40
21682;DHT22;11002;48.256;10.084;2024-02-26T01:14:11;4.50;60.30
21682;DHT22;11002;48.256;10.084;2024-02-26T01:16:38;4.60;60.20
21682;DHT22;11002;48.256;10.084;2024-02-26T01:19:05;4.60;60.10
21682;DHT22;11002;48.256;10.084;2024-02-26T01:21:33;4.60;60.40
21682;DHT22;11002;48.256;10.084;2024-02-26T01:24:01;4.50;60.90
21682;DHT22;11002;48.256;10.084;2024-02-26T01:26:28;4.50;60.90
21682;DHT22;11002;48.256;10.084;2024-02-26T01:28:56;4.50;60.90
21682;DHT22;11002;48.256;10.084;2024-02-26T01:31:24;4.50;60.90
21682;DHT22;11002;48.256;10.084;2024-02-26T01:33:51;4.50;60.90
21682;DHT22;11002;48.256;10.084;2024-02-26T01:36:18;4.50;60.90
21682;DHT22;11002;48.256;10.084;2024-02-26T01:38:46;4.40;60.80
21682;DHT22;11002;48.256;10.084;2024-02-26T01:41:15;4.40;60.90
21682;DHT22;11002;48.256;10.084;2024-02-26T01:43:42;4.40;60.80
21682;DHT22;11002;48.256;10.084;2024-02-26T01:46:12;4.30;60.80
21682;DHT22;11002;48.256;10.084;2024-02-26T01:48:41;4.30;61.30
21682;DHT22;11002;48.256;10.084;2024-02-26T01:51:09;4.30;61.80
21682;DHT22;11002;48.256;10.084;2024-02-26T01:53:37;4.30;61.90
21682;DHT22;11002;48.256;10.084;2024-02-26T01:56:04;4.30;62.00
21682;DHT22;11002;48.256;10.084;2024-02-26T01:58:34;4.30;61.90
21682;DHT22;11002;48.256;10.084;2024-02-26T02:01:02;4.30;61.90
21682;DHT22;11002;48.256;10.084;2024-02-26T02:03:30;4.30;61.70
21682;DHT22;11002;48.256;10.084;2024-02-26T02:05:58;4.30;61.70
21682;DHT22;11002;48.256;10.084;2024-02-26T02:08:25;4.40;61.90
21682;DHT22;11002;48.256;10.084;2024-02-26T02:10:53;4.40;62.00
21682;DHT22;11002;48.256;10.084;2024-02-26T02:13:20;4.40;63.10
21682;DHT22;11002;48.256;10.084;2024-02-26T02:15:48;4.40;62.60
21682;DHT22;11002;48.256;10.084;2024-02-26T02:18:16;4.50;62.70
21682;DHT22;11002;48.256;10.084;2024-02-26T02:20:44;4.40;62.70
21682;DHT22;11002;48.256;10.084;2024-02-26T02:23:12;4.40;62.60
21682;DHT22;11002;48.256;10.084;2024-02-26T02:25:40;4.40;62.60
21682;DHT22;11002;48.256;10.084;2024-02-26T02:28:07;4.50;62.50
21682;DHT22;11002;48.256;10.084;2024-02-26T02:30:34;4.30;63.10
21682;DHT22;11002;48.256;10.084;2024-02-26T02:33:02;4.50;63.10
21682;DHT22;11002;48.256;10.084;2024-02-26T02:35:29;4.50;63.30
21682;DHT22;11002;48.256;10.084;2024-02-26T02:37:58;4.40;63.90
21682;DHT22;11002;48.256;10.084;2024-02-26T02:40:25;4.40;64.10
21682;DHT22;11002;48.256;10.084;2024-02-26T02:42:52;4.50;64.30
21682;DHT22;11002;48.256;10.084;2024-02-26T02:45:19;4.40;64.30
21682;DHT22;11002;48.256;10.084;2024-02-26T02:47:47;4.40;64.60
21682;DHT22;11002;48.256;10.084;2024-02-26T02:50:14;4.40;64.90
21682;DHT22;11002;48.256;10.084;2024-02-26T02:52:41;4.40;65.60
21682;DHT22;11002;48.256;10.084;2024-02-26T02:55:10;4.40;65.90
21682;DHT22;11002;48.256;10.084;2024-02-26T02:57:37;4.40;65.90
21682;DHT22;11002;48.256;10.084;2024-02-26T03:00:08;4.40;65.70
21682;DHT22;11002;48.256;10.084;2024-02-26T03:02:35;4.50;65.90
21682;DHT22;11002;48.256;10.084;2024-02-26T03:05:03;4.40;65.80
21682;DHT22;11002;48.256;10.084;2024-02-26T03:07:30;4.40;66.10
21682;DHT22;11002;48.256;10.084;2024-02-26T03:09:58;4.40;66.60
21682;DHT22;11002;48.256;10.084;2024-02-26T03:12:26;4.40;67.00
21682;DHT22;11002;48.256;10.084;2024-02-26T03:14:54;4.40;67.00
21682;DHT22;11002;48.256;10.084;2024-02-26T03:17:22;4.50;67.20
21682;DHT22;11002;48.256;10.084;2024-02-26T03:19:50;4.40;67.20
21682;DHT22;11002;48.256;10.084;2024-02-26T03:22:19;4.50;67.10
21682;DHT22;11002;48.256;10.084;2024-02-26T03:24:47;4.40;67.30
21682;DHT22;11002;48.256;10.084;2024-02-26T03:27:14;4.40;67.20
21682;DHT22;11002;48.256;10.084;2024-02-26T03:29:42;4.40;67.30
21682;DHT22;11002;48.256;10.084;2024-02-26T03:32:10;4.40;67.60
21682;DHT22;11002;48.256;10.084;2024-02-26T03:34:37;4.40;67.60
21682;DHT22;11002;48.256;10.084;2024-02-26T03:37:05;4.50;67.70
21682;DHT22;11002;48.256;10.084;2024-02-26T03:39:33;4.50;67.70
21682;DHT22;11002;48.256;10.084;2024-02-26T03:42:00;4.40;67.60
21682;DHT22;11002;48.256;10.084;2024-02-26T03:44:28;4.30;67.50
21682;DHT22;11002;48.256;10.084;2024-02-26T03:46:56;4.30;67.50
21682;DHT22;11002;48.256;10.084;2024-02-26T03:49:23;4.30;69.20
21682;DHT22;11002;48.256;10.084;2024-02-26T03:51:50;4.30;69.60
21682;DHT22;11002;48.256;10.084;2024-02-26T03:54:18;4.30;69.40
21682;DHT22;11002;48.256;10.084;2024-02-26T03:56:45;4.40;69.20
21682;DHT22;11002;48.256;10.084;2024-02-26T03:59:12;4.30;69.00
21682;DHT22;11002;48.256;10.084;2024-02-26T04:01:44;4.30;69.00
21682;DHT22;11002;48.256;10.084;2024-02-26T04:04:13;4.40;69.00
21682;DHT22;11002;48.256;10.084;2024-02-26T04:06:40;4.40;68.90
21682;DHT22;11002;48.256;10.084;2024-02-26T04:09:11;4.40;68.60
21682;DHT22;11002;48.256;10.084;2024-02-26T04:11:38;4.50;68.50
21682;DHT22;11002;48.256;10.084;2024-02-26T04:14:05;4.40;68.10
21682;DHT22;11002;48.256;10.084;2024-02-26T04:16:34;4.40;68.10
21682;DHT22;11002;48.256;10.084;2024-02-26T04:19:01;4.40;67.60
21682;DHT22;11002;48.256;10.084;2024-02-26T04:21:30;4.50;67.60
21682;DHT22;11002;48.256;10.084;2024-02-26T04:23:57;4.50;67.60
21682;DHT22;11002;48.256;10.084;2024-02-26T04:26:27;4.40;67.60
21682;DHT22;11002;48.256;10.084;2024-02-26T04:28:55;4.50;67.60
21682;DHT22;11002;48.256;10.084;2024-02-26T04:31:22;4.50;67.70
21682;DHT22;11002;48.256;10.084;2024-02-26T04:33:49;4.50;67.70
21682;DHT22;11002;48.256;10.084;2024-02-26T04:36:16;4.50;67.70
21682;DHT22;11002;48.256;10.084;2024-02-26T04:38:45;4.50;67.60
21682;DHT22;11002;48.256;10.084;2024-02-26T04:41:12;4.50;67.70
21682;DHT22;11002;48.256;10.084;2024-02-26T04:43:39;4.50;67.70
21682;DHT22;11002;48.256;10.084;2024-02-26T04:46:07;4.40;67.60
21682;DHT22;11002;48.256;10.084;2024-02-26T04:48:35;4.40;67.60
21682;DHT22;11002;48.256;10.084;2024-02-26T04:51:02;4.50;67.70
21682;DHT22;11002;48.256;10.084;2024-02-26T04:53:30;4.60;68.60
21682;DHT22;11002;48.256;10.084;2024-02-26T04:55:58;4.50;67.70
21682;DHT22;11002;48.256;10.084;2024-02-26T04:58:26;4.40;67.60
21682;DHT22;11002;48.256;10.084;2024-02-26T05:00:53;4.40;67.60
21682;DHT22;11002;48.256;10.084;2024-02-26T05:03:20;4.40;67.60
21682;DHT22;11002;48.256;10.084;2024-02-26T05:05:47;4.50;67.70
21682;DHT22;11002;48.256;10.084;2024-02-26T05:08:14;4.40;67.60
21682;DHT22;11002;48.256;10.084;2024-02-26T05:10:42;4.50;67.70
21682;DHT22;11002;48.256;10.084;2024-02-26T05:13:10;4.40;67.60
21682;DHT22;11002;48.256;10.084;2024-02-26T05:15:37;4.40;67.70
21682;DHT22;11002;48.256;10.084;2024-02-26T05:18:05;4.40;68.60
21682;DHT22;11002;48.256;10.084;2024-02-26T05:20:33;4.40;68.90
21682;DHT22;11002;48.256;10.084;2024-02-26T05:23:02;4.40;69.00
21682;DHT22;11002;48.256;10.084;2024-02-26T05:25:29;4.60;69.50
21682;DHT22;11002;48.256;10.084;2024-02-26T05:27:57;4.30;70.10
21682;DHT22;11002;48.256;10.084;2024-02-26T05:30:25;4.20;70.50
21682;DHT22;11002;48.256;10.084;2024-02-26T05:32:54;4.20;70.80
21682;DHT22;11002;48.256;10.084;2024-02-26T05:35:21;4.20;71.30
21682;DHT22;11002;48.256;10.084;2024-02-26T05:37:48;4.40;71.80
21682;DHT22;11002;48.256;10.084;2024-02-26T05:40:15;4.20;71.70
21682;DHT22;11002;48.256;10.084;2024-02-26T05:42:43;4.40;72.20
21682;DHT22;11002;48.256;10.084;2024-02-26T05:45:11;4.20;72.90
21682;DHT22;11002;48.256;10.084;2024-02-26T05:47:40;4.20;73.40
21682;DHT22;11002;48.256;10.084;2024-02-26T05:50:09;4.20;73.80
21682;DHT22;11002;48.256;10.084;2024-02-26T05:52:36;4.20;73.80
21682;DHT22;11002;48.256;10.084;2024-02-26T05:55:05;4.20;74.00
21682;DHT22;11002;48.256;10.084;2024-02-26T05:57:33;4.20;73.90
21682;DHT22;11002;48.256;10.084;2024-02-26T06:00:00;4.20;73.90
21682;DHT22;11002;48.256;10.084;2024-02-26T06:02:37;4.20;74.00
21682;DHT22;11002;48.256;10.084;2024-02-26T06:05:06;4.30;74.10
21682;DHT22;11002;48.256;10.084;2024-02-26T06:07:34;4.30;74.10
21682;DHT22;11002;48.256;10.084;2024-02-26T06:10:02;4.30;73.60
21682;DHT22;11002;48.256;10.084;2024-02-26T06:12:30;4.30;73.00
21682;DHT22;11002;48.256;10.084;2024-02-26T06:14:58;4.40;72.90
21682;DHT22;11002;48.256;10.084;2024-02-26T06:17:27;4.40;72.80
21682;DHT22;11002;48.256;10.084;2024-02-26T06:19:54;4.40;72.40
21682;DHT22;11002;48.256;10.084;2024-02-26T06:22:23;4.40;72.10
21682;DHT22;11002;48.256;10.084;2024-02-26T06:24:50;4.60;72.10
21682;DHT22;11002;48.256;10.084;2024-02-26T06:27:17;4.40;71.60
21682;DHT22;11002;48.256;10.084;2024-02-26T06:29:45;4.40;71.50
21682;DHT22;11002;48.256;10.084;2024-02-26T06:32:12;4.30;71.80
21682;DHT22;11002;48.256;10.084;2024-02-26T06:34:39;4.30;72.30
21682;DHT22;11002;48.256;10.084;2024-02-26T06:37:08;4.30;72.30
21682;DHT22;11002;48.256;10.084;2024-02-26T06:39:36;4.40;72.40
21682;DHT22;11002;48.256;10.084;2024-02-26T06:42:04;4.30;72.10
21682;DHT22;11002;48.256;10.084;2024-02-26T06:44:32;4.30;71.90
21682;DHT22;11002;48.256;10.084;2024-02-26T06:46:59;4.30;71.70
21682;DHT22;11002;48.256;10.084;2024-02-26T06:49:26;4.40;71.50
21682;DHT22;11002;48.256;10.084;2024-02-26T06:51:54;4.40;71.50
21682;DHT22;11002;48.256;10.084;2024-02-26T06:54:21;4.40;70.60
21682;DHT22;11002;48.256;10.084;2024-02-26T06:56:50;4.40;70.90
21682;DHT22;11002;48.256;10.084;2024-02-26T06:59:17;4.50;70.80
21682;DHT22;11002;48.256;10.084;2024-02-26T07:01:45;4.40;70.30
21682;DHT22;11002;48.256;10.084;2024-02-26T07:04:13;4.50;70.00
21682;DHT22;11002;48.256;10.084;2024-02-26T07:06:40;4.50;68.80
21682;DHT22;11002;48.256;10.084;2024-02-26T07:09:08;4.50;67.80
21682;DHT22;11002;48.256;10.084;2024-02-26T07:11:38;4.70;68.00
21682;DHT22;11002;48.256;10.084;2024-02-26T07:14:09;4.60;67.80
21682;DHT22;11002;48.256;10.084;2024-02-26T07:16:36;4.60;67.70
21682;DHT22;11002;48.256;10.084;2024-02-26T07:19:04;4.70;67.90
21682;DHT22;11002;48.256;10.084;2024-02-26T07:21:31;4.80;68.00
21682;DHT22;11002;48.256;10.084;2024-02-26T07:23:59;5.00;68.00
21682;DHT22;11002;48.256;10.084;2024-02-26T07:26:26;4.80;66.90
21682;DHT22;11002;48.256;10.084;2024-02-26T07:28:55;4.70;67.20
21682;DHT22;11002;48.256;10.084;2024-02-26T07:31:24;4.70;67.90
21682;DHT22;11002;48.256;10.084;2024-02-26T07:33:51;4.70;67.80
21682;DHT22;11002;48.256;10.084;2024-02-26T07:36:18;4.70;67.90
21682;DHT22;11002;48.256;10.084;2024-02-26T07:38:46;4.70;67.90
21682;DHT22;11002;48.256;10.084;2024-02-26T07:41:13;4.70;67.90
21682;DHT22;11002;48.256;10.084;2024-02-26T07:43:40;4.70;67.90
21682;DHT22;11002;48.256;10.084;2024-02-26T07:46:07;4.80;68.00
21682;DHT22;11002;48.256;10.084;2024-02-26T07:48:39;4.90;68.70
21682;DHT22;11002;48.256;10.084;2024-02-26T07:51:07;5.00;68.10
21682;DHT22;11002;48.256;10.084;2024-02-26T07:53:34;5.20;68.30
21682;DHT22;11002;48.256;10.084;2024-02-26T07:56:01;5.30;67.30
21682;DHT22;11002;48.256;10.084;2024-02-26T07:58:29;5.40;66.50
21682;DHT22;11002;48.256;10.084;2024-02-26T08:00:56;5.50;65.60
21682;DHT22;11002;48.256;10.084;2024-02-26T08:03:23;5.80;63.90
21682;DHT22;11002;48.256;10.084;2024-02-26T08:05:52;5.80;62.20
21682;DHT22;11002;48.256;10.084;2024-02-26T08:08:19;5.90;62.20
21682;DHT22;11002;48.256;10.084;2024-02-26T08:10:46;6.10;62.40
21682;DHT22;11002;48.256;10.084;2024-02-26T08:13:14;6.50;60.20
21682;DHT22;11002;48.256;10.084;2024-02-26T08:15:41;6.40;58.50
21682;DHT22;11002;48.256;10.084;2024-02-26T08:18:08;6.40;56.40
21682;DHT22;11002;48.256;10.084;2024-02-26T08:20:35;6.40;56.40
21682;DHT22;11002;48.256;10.084;2024-02-26T08:23:04;6.40;56.40
21682;DHT22;11002;48.256;10.084;2024-02-26T08:25:31;6.50;56.40
21682;DHT22;11002;48.256;10.084;2024-02-26T08:27:59;6.60;56.50
21682;DHT22;11002;48.256;10.084;2024-02-26T08:30:26;6.60;55.60
21682;DHT22;11002;48.256;10.084;2024-02-26T08:32:53;6.70;55.60
21682;DHT22;11002;48.256;10.084;2024-02-26T08:35:21;6.90;55.60
21682;DHT22;11002;48.256;10.084;2024-02-26T08:37:48;7.00;53.80
21682;DHT22;11002;48.256;10.084;2024-02-26T08:40:17;7.20;53.80
21682;DHT22;11002;48.256;10.084;2024-02-26T08:42:45;7.40;53.20
21682;DHT22;11002;48.256;10.084;2024-02-26T08:45:12;7.40;51.70
21682;DHT22;11002;48.256;10.084;2024-02-26T08:47:40;7.50;52.40
21682;DHT22;11002;48.256;10.084;2024-02-26T08:50:08;7.60;51.20
21682;DHT22;11002;48.256;10.084;2024-02-26T08:52:38;8.00;51.50
21682;DHT22;11002;48.256;10.084;2024-02-26T08:55:06;8.30;50.80
21682;DHT22;11002;48.256;10.084;2024-02-26T08:57:36;8.80;48.50
21682;DHT22;11002;48.256;10.084;2024-02-26T09:00:05;9.50;46.70
21682;DHT22;11002;48.256;10.084;2024-02-26T09:02:32;10.10;44.20
21682;DHT22;11002;48.256;10.084;2024-02-26T09:05:00;10.40;41.80
21682;DHT22;11002;48.256;10.084;2024-02-26T09:07:27;10.40;39.90
21682;DHT22;11002;48.256;10.084;2024-02-26T09:09:54;10.00;39.60
21682;DHT22;11002;48.256;10.084;2024-02-26T09:12:22;9.90;40.40
21682;DHT22;11002;48.256;10.084;2024-02-26T09:14:51;9.70;40.20
21682;DHT22;11002;48.256;10.084;2024-02-26T09:17:18;9.50;42.50
21682;DHT22;11002;48.256;10.084;2024-02-26T09:19:45;9.40;42.50
21682;DHT22;11002;48.256;10.084;2024-02-26T09:22:12;9.30;43.00
21682;DHT22;11002;48.256;10.084;2024-02-26T09:24:40;9.20;43.60
21682;DHT22;11002;48.256;10.084;2024-02-26T09:27:07;9.10;44.20
21682;DHT22;11002;48.256;10.084;2024-02-26T09:29:35;9.10;44.50
21682;DHT22;11002;48.256;10.084;2024-02-26T09:32:05;9.20;44.70
21682;DHT22;11002;48.256;10.084;2024-02-26T09:34:32;9.30;44.30
21682;DHT22;11002;48.256;10.084;2024-02-26T09:36:59;9.30;44.10
21682;DHT22;11002;48.256;10.084;2024-02-26T09:39:27;9.30;44.00
21682;DHT22;11002;48.256;10.084;2024-02-26T09:41:54;9.30;44.10
21682;DHT22;11002;48.256;10.084;2024-02-26T09:44:22;9.50;43.70
21682;DHT22;11002;48.256;10.084;2024-02-26T09:46:52;9.60;44.10
21682;DHT22;11002;48.256;10.084;2024-02-26T09:49:22;9.80;43.00
21682;DHT22;11002;48.256;10.084;2024-02-26T09:51:50;10.10;41.30
21682;DHT22;11002;48.256;10.084;2024-02-26T09:54:19;10.70;40.70
21682;DHT22;11002;48.256;10.084;2024-02-26T09:56:49;11.40;39.80
21682;DHT22;11002;48.256;10.084;2024-02-26T09:59:17;11.80;38.40
21682;DHT22;11002;48.256;10.084;2024-02-26T10:01:45;12.20;35.90
21682;DHT22;11002;48.256;10.084;2024-02-26T10:04:14;12.60;36.50
21682;DHT22;11002;48.256;10.084;2024-02-26T10:06:43;13.20;33.70
21682;DHT22;11002;48.256;10.084;2024-02-26T10:09:12;13.90;32.10
21682;DHT22;11002;48.256;10.084;2024-02-26T10:11:42;14.90;28.40
21682;DHT22;11002;48.256;10.084;2024-02-26T10:14:10;15.80;28.40
21682;DHT22;11002;48.256;10.084;2024-02-26T10:16:38;16.80;25.10
21682;DHT22;11002;48.256;10.084;2024-02-26T10:19:05;18.10;22.90
21682;DHT22;11002;48.256;10.084;2024-02-26T10:21:33;18.70;20.50
21682;DHT22;11002;48.256;10.084;2024-02-26T10:24:02;19.70;19.10
21682;DHT22;11002;48.256;10.084;2024-02-26T10:26:29;20.20;17.30
21682;DHT22;11002;48.256;10.084;2024-02-26T10:28:59;20.60;16.20
21682;DHT22;11002;48.256;10.084;2024-02-26T10:31:27;21.10;16.10
21682;DHT22;11002;48.256;10.084;2024-02-26T10:33:55;20.90;14.90
21682;DHT22;11002;48.256;10.084;2024-02-26T10:36:26;21.20;14.90
21682;DHT22;11002;48.256;10.084;2024-02-26T10:38:54;21.50;14.10
21682;DHT22;11002;48.256;10.084;2024-02-26T10:41:23;21.20;13.20
21682;DHT22;11002;48.256;10.084;2024-02-26T10:43:50;20.80;13.90
21682;DHT22;11002;48.256;10.084;2024-02-26T10:46:18;19.80;14.10
21682;DHT22;11002;48.256;10.084;2024-02-26T10:48:50;18.50;15.30
21682;DHT22;11002;48.256;10.084;2024-02-26T10:51:19;17.40;17.50
21682;DHT22;11002;48.256;10.084;2024-02-26T10:53:48;16.00;20.70
21682;DHT22;11002;48.256;10.084;2024-02-26T10:56:20;15.20;21.20
21682;DHT22;11002;48.256;10.084;2024-02-26T10:58:50;14.40;23.20
21682;DHT22;11002;48.256;10.084;2024-02-26T11:01:17;13.90;24.70
21682;DHT22;11002;48.256;10.084;2024-02-26T11:03:48;13.50;26.00
21682;DHT22;11002;48.256;10.084;2024-02-26T11:06:17;13.30;26.20
21682;DHT22;11002;48.256;10.084;2024-02-26T11:08:48;13.10;26.80
21682;DHT22;11002;48.256;10.084;2024-02-26T11:11:17;12.80;27.80
21682;DHT22;11002;48.256;10.084;2024-02-26T11:13:46;12.60;29.00
21682;DHT22;11002;48.256;10.084;2024-02-26T11:16:18;12.40;28.90
21682;DHT22;11002;48.256;10.084;2024-02-26T11:18:47;12.30;28.80
21682;DHT22;11002;48.256;10.084;2024-02-26T11:21:16;12.10;28.90
21682;DHT22;11002;48.256;10.084;2024-02-26T11:23:45;12.00;29.80
21682;DHT22;11002;48.256;10.084;2024-02-26T11:26:14;12.00;30.80
21682;DHT22;11002;48.256;10.084;2024-02-26T11:28:44;11.90;31.30
21682;DHT22;11002;48.256;10.084;2024-02-26T11:31:12;11.90;31.20
21682;DHT22;11002;48.256;10.084;2024-02-26T11:33:41;11.80;31.60
21682;DHT22;11002;48.256;10.084;2024-02-26T11:36:09;11.70;31.40
21682;DHT22;11002;48.256;10.084;2024-02-26T11:38:37;11.60;31.80
21682;DHT22;11002;48.256;10.084;2024-02-26T11:41:05;11.60;32.30
21682;DHT22;11002;48.256;10.084;2024-02-26T11:43:51;11.60;32.20
21682;DHT22;11002;48.256;10.084;2024-02-26T11:46:26;11.70;31.70
21682;DHT22;11002;48.256;10.084;2024-02-26T11:48:57;11.70;31.80
21682;DHT22;11002;48.256;10.084;2024-02-26T11:51:26;11.80;31.80
21682;DHT22;11002;48.256;10.084;2024-02-26T11:53:54;12.00;32.00
21682;DHT22;11002;48.256;10.084;2024-02-26T11:56:23;12.00;31.80
21682;DHT22;11002;48.256;10.084;2024-02-26T11:59:03;12.10;32.10
21682;DHT22;11002;48.256;10.084;2024-02-26T12:01:39;12.10;32.30
21682;DHT22;11002;48.256;10.084;2024-02-26T12:04:12;12.00;32.10
21682;DHT22;11002;48.256;10.084;2024-02-26T12:07:02;12.00;32.50
21682;DHT22;11002;48.256;10.084;2024-02-26T12:09:34;12.00;32.80
21682;DHT22;11002;48.256;10.084;2024-02-26T12:12:02;12.00;33.60
21682;DHT22;11002;48.256;10.084;2024-02-26T12:14:32;12.00;34.20
21682;DHT22;11002;48.256;10.084;2024-02-26T12:16:59;12.00;34.30
21682;DHT22;11002;48.256;10.084;2024-02-26T12:19:28;11.90;34.70
21682;DHT22;11002;48.256;10.084;2024-02-26T12:21:57;11.80;34.60
21682;DHT22;11002;48.256;10.084;2024-02-26T12:24:24;11.80;35.20
21682;DHT22;11002;48.256;10.084;2024-02-26T12:26:52;11.70;35.50
21682;DHT22;11002;48.256;10.084;2024-02-26T12:29:19;11.60;35.80
21682;DHT22;11002;48.256;10.084;2024-02-26T12:31:47;11.50;35.90
21682;DHT22;11002;48.256;10.084;2024-02-26T12:34:15;11.40;36.20
21682;DHT22;11002;48.256;10.084;2024-02-26T12:36:44;11.40;36.90
21682;DHT22;11002;48.256;10.084;2024-02-26T12:39:11;11.30;37.30
21682;DHT22;11002;48.256;10.084;2024-02-26T12:41:39;11.20;37.70
21682;DHT22;11002;48.256;10.084;2024-02-26T12:44:07;11.10;38.10
21682;DHT22;11002;48.256;10.084;2024-02-26T12:46:35;11.10;38.50
21682;DHT22;11002;48.256;10.084;2024-02-26T12:49:02;11.00;38.70
21682;DHT22;11002;48.256;10.084;2024-02-26T12:51:29;10.90;38.70
21682;DHT22;11002;48.256;10.084;2024-02-26T12:53:58;10.80;38.80
21682;DHT22;11002;48.256;10.084;2024-02-26T12:56:26;10.80;39.80
21682;DHT22;11002;48.256;10.084;2024-02-26T12:58:54;10.70;40.20
21682;DHT22;11002;48.256;10.084;2024-02-26T13:01:23;10.70;40.20
21682;DHT22;11002;48.256;10.084;2024-02-26T13:03:51;10.60;40.10
21682;DHT22;11002;48.256;10.084;2024-02-26T13:06:19;10.60;40.10
21682;DHT22;11002;48.256;10.084;2024-02-26T13:08:48;10.50;40.00
21682;DHT22;11002;48.256;10.084;2024-02-26T13:11:17;10.50;40.00
21682;DHT22;11002;48.256;10.084;2024-02-26T13:13:48;10.40;40.30
21682;DHT22;11002;48.256;10.084;2024-02-26T13:16:16;10.30;41.00
21682;DHT22;11002;48.256;10.084;2024-02-26T13:18:43;10.30;41.60
21682;DHT22;11002;48.256;10.084;2024-02-26T13:21:11;10.30;42.00
21682;DHT22;11002;48.256;10.084;2024-02-26T13:23:40;10.30;42.10
21682;DHT22;11002;48.256;10.084;2024-02-26T13:26:08;10.30;41.90
21682;DHT22;11002;48.256;10.084;2024-02-26T13:28:37;10.30;42.00
21682;DHT22;11002;48.256;10.084;2024-02-26T13:31:05;10.30;42.20
21682;DHT22;11002;48.256;10.084;2024-02-26T13:33:34;10.30;42.00
21682;DHT22;11002;48.256;10.084;2024-02-26T13:36:02;10.30;41.90
21682;DHT22;11002;48.256;10.084;2024-02-26T13:38:29;10.30;42.00
21682;DHT22;11002;48.256;10.084;2024-02-26T13:40:56;10.40;42.10
21682;DHT22;11002;48.256;10.084;2024-02-26T13:43:24;10.40;41.90
21682;DHT22;11002;48.256;10.084;2024-02-26T13:45:52;10.40;42.00
21682;DHT22;11002;48.256;10.084;2024-02-26T13:48:19;10.50;41.60
21682;DHT22;11002;48.256;10.084;2024-02-26T13:50:47;10.50;41.40
21682;DHT22;11002;48.256;10.084;2024-02-26T13:53:15;10.70;41.60
21682;DHT22;11002;48.256;10.084;2024-02-26T13:55:42;10.80;40.60
21682;DHT22;11002;48.256;10.084;2024-02-26T13:58:11;10.90;40.30
21682;DHT22;11002;48.256;10.084;2024-02-26T14:00:40;11.00;40.40
21682;DHT22;11002;48.256;10.084;2024-02-26T14:03:08;11.10;40.50
21682;DHT22;11002;48.256;10.084;2024-02-26T14:05:36;11.10;40.50
21682;DHT22;11002;48.256;10.084;2024-02-26T14:08:03;11.20;40.60
21682;DHT22;11002;48.256;10.084;2024-02-26T14:10:31;11.20;40.60
21682;DHT22;11002;48.256;10.084;2024-02-26T14:12:58;11.30;40.70
21682;DHT22;11002;48.256;10.084;2024-02-26T14:15:26;11.40;40.80
21682;DHT22;11002;48.256;10.084;2024-02-26T14:17:54;11.50;40.70
21682;DHT22;11002;48.256;10.084;2024-02-26T14:20:23;11.50;40.60
21682;DHT22;11002;48.256;10.084;2024-02-26T14:22:52;11.50;39.50
21682;DHT22;11002;48.256;10.084;2024-02-26T14:25:19;11.30;39.20
21682;DHT22;11002;48.256;10.084;2024-02-26T14:27:47;11.20;40.60
21682;DHT22;11002;48.256;10.084;2024-02-26T14:30:15;11.20;40.60
21682;DHT22;11002;48.256;10.084;2024-02-26T14:32:42;11.20;40.60
21682;DHT22;11002;48.256;10.084;2024-02-26T14:35:09;11.20;40.60
21682;DHT22;11002;48.256;10.084;2024-02-26T14:37:38;11.10;40.50
21682;DHT22;11002;48.256;10.084;2024-02-26T14:40:07;11.10;40.50
21682;DHT22;11002;48.256;10.084;2024-02-26T14:42:34;11.10;40.50
21682;DHT22;11002;48.256;10.084;2024-02-26T14:45:03;11.20;40.60
21682;DHT22;11002;48.256;10.084;2024-02-26T14:47:32;11.20;40.60
21682;DHT22;11002;48.256;10.084;2024-02-26T14:49:59;11.10;40.50
21682;DHT22;11002;48.256;10.084;2024-02-26T14:52:26;10.90;40.40
21682;DHT22;11002;48.256;10.084;2024-02-26T14:54:55;10.80;40.20
21682;DHT22;11002;48.256;10.084;2024-02-26T14:57:24;10.80;40.90
21682;DHT22;11002;48.256;10.084;2024-02-26T14:59:51;10.70;41.70
21682;DHT22;11002;48.256;10.084;2024-02-26T15:02:18;10.70;42.20
21682;DHT22;11002;48.256;10.084;2024-02-26T15:04:46;10.70;42.40
21682;DHT22;11002;48.256;10.084;2024-02-26T15:07:14;10.80;42.50
21682;DHT22;11002;48.256;10.084;2024-02-26T15:09:41;10.80;42.40
21682;DHT22;11002;48.256;10.084;2024-02-26T15:12:10;10.80;42.70
21682;DHT22;11002;48.256;10.084;2024-02-26T15:14:37;10.90;42.30
21682;DHT22;11002;48.256;10.084;2024-02-26T15:17:05;10.90;42.10
21682;DHT22;11002;48.256;10.084;2024-02-26T15:19:36;10.80;41.80
21682;DHT22;11002;48.256;10.084;2024-02-26T15:22:03;10.80;42.00
21682;DHT22;11002;48.256;10.084;2024-02-26T15:24:30;10.80;42.20
21682;DHT22;11002;48.256;10.084;2024-02-26T15:26:58;10.80;42.20
21682;DHT22;11002;48.256;10.084;2024-02-26T15:29:26;10.80;42.50
21682;DHT22;11002;48.256;10.084;2024-02-26T15:31:53;10.70;42.70
21682;DHT22;11002;48.256;10.084;2024-02-26T15:34:21;10.60;43.00
21682;DHT22;11002;48.256;10.084;2024-02-26T15:36:48;10.60;43.30
21682;DHT22;11002;48.256;10.084;2024-02-26T15:39:15;10.50;43.50
21682;DHT22;11002;48.256;10.084;2024-02-26T15:41:42;10.40;43.70
21682;DHT22;11002;48.256;10.084;2024-02-26T15:44:10;10.40;43.80
21682;DHT22;11002;48.256;10.084;2024-02-26T15:46:40;10.40;43.50
21682;DHT22;11002;48.256;10.084;2024-02-26T15:49:08;10.30;43.00
21682;DHT22;11002;48.256;10.084;2024-02-26T15:51:35;10.20;43.50
21682;DHT22;11002;48.256;10.084;2024-02-26T15:54:02;10.20;43.60
21682;DHT22;11002;48.256;10.084;2024-02-26T15:56:30;10.20;43.50